sensor_id;sensor_type;location;lat;lon;timestamp;P1;durP1;ratioP1;P2;durP2;ratioP2
57441;SDS011;43284;47.042;15.498;2023-08-06T00:01:49;3.53;;;2.22;;
57441;SDS011;43284;47.042;15.498;2023-08-06T00:04:14;5.28;;;2.10;;
57441;SDS011;43284;47.042;15.498;2023-08-06T00:06:40;4.25;;;1.92;;
57441;SDS011;43284;47.042;15.498;2023-08-06T00:09:05;2.97;;;2.00;;
57441;SDS011;43284;47.042;15.498;2023-08-06T00:11:31;2.80;;;1.85;;
57441;SDS011;43284;47.042;15.498;2023-08-06T00:13:57;2.72;;;2.08;;
57441;SDS011;43284;47.042;15.498;2023-08-06T00:16:22;2.45;;;2.05;;
57441;SDS011;43284;47.042;15.498;2023-08-06T00:18:48;2.92;;;2.30;;
57441;SDS011;43284;47.042;15.498;2023-08-06T00:21:13;2.30;;;1.90;;
57441;SDS011;43284;47.042;15.498;2023-08-06T00:23:39;3.25;;;2.30;;
57441;SDS011;43284;47.042;15.498;2023-08-06T00:26:05;3.83;;;2.22;;
57441;SDS011;43284;47.042;15.498;2023-08-06T00:28:31;3.72;;;2.00;;
57441;SDS011;43284;47.042;15.498;2023-08-06T00:30:56;2.20;;;1.80;;
57441;SDS011;43284;47.042;15.498;2023-08-06T00:33:23;2.63;;;1.77;;
57441;SDS011;43284;47.042;15.498;2023-08-06T00:35:49;2.25;;;1.75;;
57441;SDS011;43284;47.042;15.498;2023-08-06T00:38:15;2.83;;;2.10;;
57441;SDS011;43284;47.042;15.498;2023-08-06T00:40:40;2.30;;;1.60;;
57441;SDS011;43284;47.042;15.498;2023-08-06T00:43:06;4.40;;;1.70;;
57441;SDS011;43284;47.042;15.498;2023-08-06T00:45:33;2.80;;;1.73;;
57441;SDS011;43284;47.042;15.498;2023-08-06T00:48:00;3.25;;;2.00;;
57441;SDS011;43284;47.042;15.498;2023-08-06T00:50:26;3.15;;;2.53;;
57441;SDS011;43284;47.042;15.498;2023-08-06T00:52:52;3.05;;;2.00;;
57441;SDS011;43284;47.042;15.498;2023-08-06T00:55:17;2.30;;;1.90;;
57441;SDS011;43284;47.042;15.498;2023-08-06T00:57:43;2.47;;;1.75;;
57441;SDS011;43284;47.042;15.498;2023-08-06T01:00:09;3.00;;;2.05;;
57441;SDS011;43284;47.042;15.498;2023-08-06T01:02:35;2.80;;;2.00;;
57441;SDS011;43284;47.042;15.498;2023-08-06T01:05:02;3.55;;;2.13;;
57441;SDS011;43284;47.042;15.498;2023-08-06T01:07:33;3.30;;;2.22;;
57441;SDS011;43284;47.042;15.498;2023-08-06T01:10:19;3.28;;;2.45;;
57441;SDS011;43284;47.042;15.498;2023-08-06T01:15:24;4.07;;;2.40;;
57441;SDS011;43284;47.042;15.498;2023-08-06T01:18:04;2.97;;;2.10;;
57441;SDS011;43284;47.042;15.498;2023-08-06T01:20:30;2.22;;;1.73;;
57441;SDS011;43284;47.042;15.498;2023-08-06T01:22:56;2.65;;;1.77;;
57441;SDS011;43284;47.042;15.498;2023-08-06T01:25:22;1.85;;;1.45;;
57441;SDS011;43284;47.042;15.498;2023-08-06T01:27:56;3.25;;;1.70;;
57441;SDS011;43284;47.042;15.498;2023-08-06T01:30:33;3.80;;;1.75;;
57441;SDS011;43284;47.042;15.498;2023-08-06T01:33:04;2.00;;;1.65;;
57441;SDS011;43284;47.042;15.498;2023-08-06T01:35:31;1.90;;;1.40;;
57441;SDS011;43284;47.042;15.498;2023-08-06T01:37:58;4.22;;;1.77;;
57441;SDS011;43284;47.042;15.498;2023-08-06T01:40:25;2.50;;;1.90;;
57441;SDS011;43284;47.042;15.498;2023-08-06T01:42:53;2.00;;;1.45;;
57441;SDS011;43284;47.042;15.498;2023-08-06T01:45:19;3.13;;;1.83;;
57441;SDS011;43284;47.042;15.498;2023-08-06T01:47:44;2.42;;;1.80;;
57441;SDS011;43284;47.042;15.498;2023-08-06T01:50:10;2.50;;;1.65;;
57441;SDS011;43284;47.042;15.498;2023-08-06T01:52:35;1.77;;;1.48;;
57441;SDS011;43284;47.042;15.498;2023-08-06T01:55:01;1.95;;;1.38;;
57441;SDS011;43284;47.042;15.498;2023-08-06T01:57:26;2.42;;;1.90;;
57441;SDS011;43284;47.042;15.498;2023-08-06T01:59:52;4.45;;;1.67;;
57441;SDS011;43284;47.042;15.498;2023-08-06T02:02:17;4.85;;;1.90;;
57441;SDS011;43284;47.042;15.498;2023-08-06T02:04:42;2.47;;;1.40;;
57441;SDS011;43284;47.042;15.498;2023-08-06T02:07:08;1.77;;;1.45;;
57441;SDS011;43284;47.042;15.498;2023-08-06T02:09:33;2.47;;;1.75;;
57441;SDS011;43284;47.042;15.498;2023-08-06T02:12:00;5.63;;;1.50;;
57441;SDS011;43284;47.042;15.498;2023-08-06T02:14:26;2.15;;;1.65;;
57441;SDS011;43284;47.042;15.498;2023-08-06T02:16:51;1.48;;;1.35;;
57441;SDS011;43284;47.042;15.498;2023-08-06T02:19:17;2.55;;;1.42;;
57441;SDS011;43284;47.042;15.498;2023-08-06T02:21:42;3.15;;;1.00;;
57441;SDS011;43284;47.042;15.498;2023-08-06T02:24:08;2.22;;;1.33;;
57441;SDS011;43284;47.042;15.498;2023-08-06T02:26:33;4.97;;;1.20;;
57441;SDS011;43284;47.042;15.498;2023-08-06T02:28:59;5.22;;;1.20;;
57441;SDS011;43284;47.042;15.498;2023-08-06T02:31:24;1.63;;;0.93;;
57441;SDS011;43284;47.042;15.498;2023-08-06T02:33:50;5.32;;;1.30;;
57441;SDS011;43284;47.042;15.498;2023-08-06T02:36:15;1.30;;;1.20;;
57441;SDS011;43284;47.042;15.498;2023-08-06T02:38:41;2.67;;;1.95;;
57441;SDS011;43284;47.042;15.498;2023-08-06T02:41:06;2.60;;;1.50;;
57441;SDS011;43284;47.042;15.498;2023-08-06T02:43:32;7.57;;;1.60;;
57441;SDS011;43284;47.042;15.498;2023-08-06T02:45:58;1.30;;;1.05;;
57441;SDS011;43284;47.042;15.498;2023-08-06T02:48:24;5.50;;;1.35;;
57441;SDS011;43284;47.042;15.498;2023-08-06T02:50:49;1.63;;;1.35;;
57441;SDS011;43284;47.042;15.498;2023-08-06T02:53:15;1.50;;;1.20;;
57441;SDS011;43284;47.042;15.498;2023-08-06T02:55:50;2.42;;;1.40;;
57441;SDS011;43284;47.042;15.498;2023-08-06T02:58:15;1.73;;;1.13;;
57441;SDS011;43284;47.042;15.498;2023-08-06T03:00:42;1.45;;;1.35;;
57441;SDS011;43284;47.042;15.498;2023-08-06T03:03:08;1.42;;;1.00;;
57441;SDS011;43284;47.042;15.498;2023-08-06T03:05:34;2.00;;;1.20;;
57441;SDS011;43284;47.042;15.498;2023-08-06T03:07:59;2.70;;;1.48;;
57441;SDS011;43284;47.042;15.498;2023-08-06T03:10:25;1.88;;;1.50;;
57441;SDS011;43284;47.042;15.498;2023-08-06T03:12:51;0.80;;;0.80;;
57441;SDS011;43284;47.042;15.498;2023-08-06T03:15:16;2.15;;;1.13;;
57441;SDS011;43284;47.042;15.498;2023-08-06T03:17:42;2.97;;;1.42;;
57441;SDS011;43284;47.042;15.498;2023-08-06T03:20:09;1.35;;;1.25;;
57441;SDS011;43284;47.042;15.498;2023-08-06T03:22:35;4.20;;;1.08;;
57441;SDS011;43284;47.042;15.498;2023-08-06T03:25:00;1.55;;;1.27;;
57441;SDS011;43284;47.042;15.498;2023-08-06T03:27:26;1.60;;;1.15;;
57441;SDS011;43284;47.042;15.498;2023-08-06T03:29:51;2.10;;;1.27;;
57441;SDS011;43284;47.042;15.498;2023-08-06T03:32:17;3.42;;;1.55;;
57441;SDS011;43284;47.042;15.498;2023-08-06T03:34:42;2.38;;;1.73;;
57441;SDS011;43284;47.042;15.498;2023-08-06T03:37:08;3.13;;;1.80;;
57441;SDS011;43284;47.042;15.498;2023-08-06T03:39:33;5.63;;;2.55;;
57441;SDS011;43284;47.042;15.498;2023-08-06T03:41:59;5.55;;;3.40;;
57441;SDS011;43284;47.042;15.498;2023-08-06T03:44:24;5.68;;;2.60;;
57441;SDS011;43284;47.042;15.498;2023-08-06T03:46:52;6.47;;;3.38;;
57441;SDS011;43284;47.042;15.498;2023-08-06T03:49:17;5.28;;;2.63;;
57441;SDS011;43284;47.042;15.498;2023-08-06T03:51:43;5.43;;;3.08;;
57441;SDS011;43284;47.042;15.498;2023-08-06T03:54:08;5.45;;;3.17;;
57441;SDS011;43284;47.042;15.498;2023-08-06T03:56:34;6.75;;;4.00;;
57441;SDS011;43284;47.042;15.498;2023-08-06T03:58:59;7.55;;;4.13;;
57441;SDS011;43284;47.042;15.498;2023-08-06T04:01:25;6.53;;;3.28;;
57441;SDS011;43284;47.042;15.498;2023-08-06T04:03:50;6.95;;;3.50;;
57441;SDS011;43284;47.042;15.498;2023-08-06T04:06:15;6.40;;;3.53;;
57441;SDS011;43284;47.042;15.498;2023-08-06T04:08:41;18.15;;;5.03;;
57441;SDS011;43284;47.042;15.498;2023-08-06T04:11:06;8.27;;;3.65;;
57441;SDS011;43284;47.042;15.498;2023-08-06T04:13:32;9.13;;;4.45;;
57441;SDS011;43284;47.042;15.498;2023-08-06T04:16:04;7.53;;;3.88;;
57441;SDS011;43284;47.042;15.498;2023-08-06T04:18:30;28.33;;;4.80;;
57441;SDS011;43284;47.042;15.498;2023-08-06T04:20:55;11.90;;;5.15;;
57441;SDS011;43284;47.042;15.498;2023-08-06T04:23:22;26.05;;;5.15;;
57441;SDS011;43284;47.042;15.498;2023-08-06T04:25:48;11.82;;;4.78;;
57441;SDS011;43284;47.042;15.498;2023-08-06T04:28:13;14.00;;;4.43;;
57441;SDS011;43284;47.042;15.498;2023-08-06T04:30:39;23.60;;;4.38;;
57441;SDS011;43284;47.042;15.498;2023-08-06T04:33:04;15.32;;;3.78;;
57441;SDS011;43284;47.042;15.498;2023-08-06T04:35:30;7.88;;;3.75;;
57441;SDS011;43284;47.042;15.498;2023-08-06T04:37:55;6.07;;;3.22;;
57441;SDS011;43284;47.042;15.498;2023-08-06T04:40:21;6.05;;;3.67;;
57441;SDS011;43284;47.042;15.498;2023-08-06T04:42:46;7.22;;;4.07;;
57441;SDS011;43284;47.042;15.498;2023-08-06T04:45:12;7.80;;;3.42;;
57441;SDS011;43284;47.042;15.498;2023-08-06T04:47:37;7.03;;;3.70;;
57441;SDS011;43284;47.042;15.498;2023-08-06T04:50:03;7.10;;;3.40;;
57441;SDS011;43284;47.042;15.498;2023-08-06T04:52:29;5.60;;;3.25;;
57441;SDS011;43284;47.042;15.498;2023-08-06T04:54:57;6.13;;;3.08;;
57441;SDS011;43284;47.042;15.498;2023-08-06T04:57:23;4.57;;;3.20;;
57441;SDS011;43284;47.042;15.498;2023-08-06T04:59:48;6.38;;;2.55;;
57441;SDS011;43284;47.042;15.498;2023-08-06T05:02:14;5.38;;;2.65;;
57441;SDS011;43284;47.042;15.498;2023-08-06T05:04:42;3.97;;;2.78;;
57441;SDS011;43284;47.042;15.498;2023-08-06T05:07:07;4.68;;;2.88;;
57441;SDS011;43284;47.042;15.498;2023-08-06T05:09:33;4.70;;;2.50;;
57441;SDS011;43284;47.042;15.498;2023-08-06T05:12:01;4.20;;;2.85;;
57441;SDS011;43284;47.042;15.498;2023-08-06T05:14:27;5.47;;;2.95;;
57441;SDS011;43284;47.042;15.498;2023-08-06T05:16:53;4.35;;;2.35;;
57441;SDS011;43284;47.042;15.498;2023-08-06T05:19:18;6.13;;;2.45;;
57441;SDS011;43284;47.042;15.498;2023-08-06T05:21:44;4.47;;;2.55;;
57441;SDS011;43284;47.042;15.498;2023-08-06T05:24:09;3.85;;;2.20;;
57441;SDS011;43284;47.042;15.498;2023-08-06T05:26:34;4.30;;;3.15;;
57441;SDS011;43284;47.042;15.498;2023-08-06T05:29:00;3.42;;;2.50;;
57441;SDS011;43284;47.042;15.498;2023-08-06T05:31:26;4.38;;;2.85;;
57441;SDS011;43284;47.042;15.498;2023-08-06T05:33:53;3.25;;;2.35;;
57441;SDS011;43284;47.042;15.498;2023-08-06T05:36:19;5.50;;;2.88;;
57441;SDS011;43284;47.042;15.498;2023-08-06T05:38:44;3.85;;;2.33;;
57441;SDS011;43284;47.042;15.498;2023-08-06T05:41:10;3.97;;;2.33;;
57441;SDS011;43284;47.042;15.498;2023-08-06T05:43:36;3.13;;;2.33;;
57441;SDS011;43284;47.042;15.498;2023-08-06T05:46:01;4.97;;;2.67;;
57441;SDS011;43284;47.042;15.498;2023-08-06T05:48:26;4.55;;;2.90;;
57441;SDS011;43284;47.042;15.498;2023-08-06T05:50:53;3.85;;;2.78;;
57441;SDS011;43284;47.042;15.498;2023-08-06T05:53:18;6.53;;;2.67;;
57441;SDS011;43284;47.042;15.498;2023-08-06T05:55:44;3.03;;;2.53;;
57441;SDS011;43284;47.042;15.498;2023-08-06T05:58:10;4.05;;;2.30;;
57441;SDS011;43284;47.042;15.498;2023-08-06T06:00:35;2.97;;;2.33;;
57441;SDS011;43284;47.042;15.498;2023-08-06T06:03:01;3.90;;;2.63;;
57441;SDS011;43284;47.042;15.498;2023-08-06T06:05:27;3.40;;;2.58;;
57441;SDS011;43284;47.042;15.498;2023-08-06T06:07:53;5.32;;;3.22;;
57441;SDS011;43284;47.042;15.498;2023-08-06T06:10:19;5.85;;;2.95;;
57441;SDS011;43284;47.042;15.498;2023-08-06T06:12:44;3.33;;;2.70;;
57441;SDS011;43284;47.042;15.498;2023-08-06T06:15:10;5.88;;;2.60;;
57441;SDS011;43284;47.042;15.498;2023-08-06T06:17:35;4.30;;;2.50;;
57441;SDS011;43284;47.042;15.498;2023-08-06T06:20:01;3.20;;;2.38;;
57441;SDS011;43284;47.042;15.498;2023-08-06T06:22:29;3.22;;;2.35;;
57441;SDS011;43284;47.042;15.498;2023-08-06T06:24:54;4.95;;;2.55;;
57441;SDS011;43284;47.042;15.498;2023-08-06T06:27:20;4.65;;;2.70;;
57441;SDS011;43284;47.042;15.498;2023-08-06T06:29:45;3.78;;;2.72;;
57441;SDS011;43284;47.042;15.498;2023-08-06T06:32:11;4.65;;;2.88;;
57441;SDS011;43284;47.042;15.498;2023-08-06T06:34:36;3.70;;;2.35;;
57441;SDS011;43284;47.042;15.498;2023-08-06T06:37:02;3.65;;;2.17;;
57441;SDS011;43284;47.042;15.498;2023-08-06T06:39:27;2.58;;;2.05;;
57441;SDS011;43284;47.042;15.498;2023-08-06T06:41:53;3.10;;;2.17;;
57441;SDS011;43284;47.042;15.498;2023-08-06T06:44:18;3.08;;;2.22;;
57441;SDS011;43284;47.042;15.498;2023-08-06T06:46:45;3.58;;;2.47;;
57441;SDS011;43284;47.042;15.498;2023-08-06T06:49:11;3.78;;;2.45;;
57441;SDS011;43284;47.042;15.498;2023-08-06T06:51:37;3.15;;;2.05;;
57441;SDS011;43284;47.042;15.498;2023-08-06T06:54:02;4.10;;;2.15;;
57441;SDS011;43284;47.042;15.498;2023-08-06T06:56:28;2.42;;;1.75;;
57441;SDS011;43284;47.042;15.498;2023-08-06T06:58:53;3.03;;;1.83;;
57441;SDS011;43284;47.042;15.498;2023-08-06T07:01:19;2.38;;;1.75;;
57441;SDS011;43284;47.042;15.498;2023-08-06T07:03:44;1.70;;;1.40;;
57441;SDS011;43284;47.042;15.498;2023-08-06T07:06:10;2.40;;;1.20;;
57441;SDS011;43284;47.042;15.498;2023-08-06T07:08:37;6.68;;;1.73;;
57441;SDS011;43284;47.042;15.498;2023-08-06T07:11:04;1.90;;;1.30;;
57441;SDS011;43284;47.042;15.498;2023-08-06T07:13:32;2.28;;;1.38;;
57441;SDS011;43284;47.042;15.498;2023-08-06T07:15:58;1.77;;;1.40;;
57441;SDS011;43284;47.042;15.498;2023-08-06T07:18:24;1.70;;;1.40;;
57441;SDS011;43284;47.042;15.498;2023-08-06T07:20:50;1.67;;;1.10;;
57441;SDS011;43284;47.042;15.498;2023-08-06T07:23:16;1.67;;;1.20;;
57441;SDS011;43284;47.042;15.498;2023-08-06T07:25:42;2.17;;;1.30;;
57441;SDS011;43284;47.042;15.498;2023-08-06T07:28:08;3.38;;;1.25;;
57441;SDS011;43284;47.042;15.498;2023-08-06T07:30:38;2.88;;;1.50;;
57441;SDS011;43284;47.042;15.498;2023-08-06T07:33:03;1.80;;;1.02;;
57441;SDS011;43284;47.042;15.498;2023-08-06T07:35:29;1.00;;;0.93;;
57441;SDS011;43284;47.042;15.498;2023-08-06T07:37:54;1.65;;;1.10;;
57441;SDS011;43284;47.042;15.498;2023-08-06T07:40:20;3.45;;;1.20;;
57441;SDS011;43284;47.042;15.498;2023-08-06T07:42:45;1.45;;;1.00;;
57441;SDS011;43284;47.042;15.498;2023-08-06T07:45:11;1.33;;;1.05;;
57441;SDS011;43284;47.042;15.498;2023-08-06T07:47:36;2.67;;;0.93;;
57441;SDS011;43284;47.042;15.498;2023-08-06T07:50:02;1.35;;;1.08;;
57441;SDS011;43284;47.042;15.498;2023-08-06T07:52:27;2.10;;;1.23;;
57441;SDS011;43284;47.042;15.498;2023-08-06T07:54:53;2.33;;;1.30;;
57441;SDS011;43284;47.042;15.498;2023-08-06T07:57:18;1.80;;;1.17;;
57441;SDS011;43284;47.042;15.498;2023-08-06T07:59:44;1.92;;;1.30;;
57441;SDS011;43284;47.042;15.498;2023-08-06T08:02:09;1.52;;;1.00;;
57441;SDS011;43284;47.042;15.498;2023-08-06T08:04:35;4.13;;;1.40;;
57441;SDS011;43284;47.042;15.498;2023-08-06T08:07:00;2.55;;;1.50;;
57441;SDS011;43284;47.042;15.498;2023-08-06T08:09:26;2.10;;;1.20;;
57441;SDS011;43284;47.042;15.498;2023-08-06T08:11:51;1.48;;;1.10;;
57441;SDS011;43284;47.042;15.498;2023-08-06T08:14:17;2.92;;;1.63;;
57441;SDS011;43284;47.042;15.498;2023-08-06T08:16:43;1.90;;;1.38;;
57441;SDS011;43284;47.042;15.498;2023-08-06T08:19:08;3.25;;;1.48;;
57441;SDS011;43284;47.042;15.498;2023-08-06T08:21:34;2.90;;;1.88;;
57441;SDS011;43284;47.042;15.498;2023-08-06T08:23:59;2.67;;;1.90;;
57441;SDS011;43284;47.042;15.498;2023-08-06T08:26:25;3.25;;;1.92;;
57441;SDS011;43284;47.042;15.498;2023-08-06T08:28:53;2.42;;;1.67;;
57441;SDS011;43284;47.042;15.498;2023-08-06T08:31:18;2.33;;;1.50;;
57441;SDS011;43284;47.042;15.498;2023-08-06T08:33:44;5.00;;;1.60;;
57441;SDS011;43284;47.042;15.498;2023-08-06T08:36:09;3.75;;;1.60;;
57441;SDS011;43284;47.042;15.498;2023-08-06T08:38:35;2.40;;;1.83;;
57441;SDS011;43284;47.042;15.498;2023-08-06T08:41:01;3.55;;;1.55;;
57441;SDS011;43284;47.042;15.498;2023-08-06T08:43:26;2.55;;;1.92;;
57441;SDS011;43284;47.042;15.498;2023-08-06T08:45:53;2.65;;;1.88;;
57441;SDS011;43284;47.042;15.498;2023-08-06T08:48:25;2.63;;;1.80;;
57441;SDS011;43284;47.042;15.498;2023-08-06T08:50:52;2.95;;;1.98;;
57441;SDS011;43284;47.042;15.498;2023-08-06T08:53:18;2.50;;;1.90;;
57441;SDS011;43284;47.042;15.498;2023-08-06T08:55:46;4.25;;;1.70;;
57441;SDS011;43284;47.042;15.498;2023-08-06T08:58:13;4.03;;;1.90;;
57441;SDS011;43284;47.042;15.498;2023-08-06T09:00:39;2.38;;;1.83;;
57441;SDS011;43284;47.042;15.498;2023-08-06T09:03:07;3.30;;;1.88;;
57441;SDS011;43284;47.042;15.498;2023-08-06T09:05:33;2.65;;;1.90;;
57441;SDS011;43284;47.042;15.498;2023-08-06T09:08:03;2.05;;;1.75;;
57441;SDS011;43284;47.042;15.498;2023-08-06T09:10:29;1.95;;;1.45;;
57441;SDS011;43284;47.042;15.498;2023-08-06T09:12:55;2.03;;;1.75;;
57441;SDS011;43284;47.042;15.498;2023-08-06T09:15:25;2.67;;;1.80;;
57441;SDS011;43284;47.042;15.498;2023-08-06T09:17:54;4.80;;;2.20;;
57441;SDS011;43284;47.042;15.498;2023-08-06T09:20:20;2.28;;;1.63;;
57441;SDS011;43284;47.042;15.498;2023-08-06T09:22:46;2.60;;;1.60;;
57441;SDS011;43284;47.042;15.498;2023-08-06T09:25:14;4.53;;;2.10;;
57441;SDS011;43284;47.042;15.498;2023-08-06T09:27:48;2.85;;;1.60;;
57441;SDS011;43284;47.042;15.498;2023-08-06T09:30:19;2.47;;;1.70;;
57441;SDS011;43284;47.042;15.498;2023-08-06T09:32:56;2.35;;;1.70;;
57441;SDS011;43284;47.042;15.498;2023-08-06T09:35:21;1.98;;;1.38;;
57441;SDS011;43284;47.042;15.498;2023-08-06T09:37:47;1.95;;;1.50;;
57441;SDS011;43284;47.042;15.498;2023-08-06T09:40:25;2.22;;;1.70;;
57441;SDS011;43284;47.042;15.498;2023-08-06T09:42:55;2.25;;;1.60;;
57441;SDS011;43284;47.042;15.498;2023-08-06T09:45:22;2.95;;;1.15;;
57441;SDS011;43284;47.042;15.498;2023-08-06T09:47:51;2.08;;;1.20;;
57441;SDS011;43284;47.042;15.498;2023-08-06T09:50:21;2.42;;;1.40;;
57441;SDS011;43284;47.042;15.498;2023-08-06T09:52:47;2.72;;;1.73;;
57441;SDS011;43284;47.042;15.498;2023-08-06T09:55:13;4.13;;;1.77;;
57441;SDS011;43284;47.042;15.498;2023-08-06T09:57:40;2.60;;;1.55;;
57441;SDS011;43284;47.042;15.498;2023-08-06T10:00:09;3.85;;;2.17;;
57441;SDS011;43284;47.042;15.498;2023-08-06T10:02:39;3.97;;;1.63;;
57441;SDS011;43284;47.042;15.498;2023-08-06T10:05:08;3.28;;;1.88;;
57441;SDS011;43284;47.042;15.498;2023-08-06T10:07:34;3.20;;;1.85;;
57441;SDS011;43284;47.042;15.498;2023-08-06T10:10:01;2.97;;;1.80;;
57441;SDS011;43284;47.042;15.498;2023-08-06T10:12:32;2.13;;;1.63;;
57441;SDS011;43284;47.042;15.498;2023-08-06T10:15:03;2.47;;;1.48;;
57441;SDS011;43284;47.042;15.498;2023-08-06T10:17:31;2.28;;;1.30;;
57441;SDS011;43284;47.042;15.498;2023-08-06T10:19:59;2.90;;;1.42;;
57441;SDS011;43284;47.042;15.498;2023-08-06T10:22:25;2.33;;;1.40;;
57441;SDS011;43284;47.042;15.498;2023-08-06T10:24:53;1.58;;;1.20;;
57441;SDS011;43284;47.042;15.498;2023-08-06T10:29:47;1.90;;;1.13;;
57441;SDS011;43284;47.042;15.498;2023-08-06T10:32:12;1.70;;;1.23;;
57441;SDS011;43284;47.042;15.498;2023-08-06T10:34:54;1.88;;;1.65;;
57441;SDS011;43284;47.042;15.498;2023-08-06T10:37:21;1.45;;;1.13;;
57441;SDS011;43284;47.042;15.498;2023-08-06T10:39:48;1.27;;;1.00;;
57441;SDS011;43284;47.042;15.498;2023-08-06T10:42:19;1.35;;;1.00;;
57441;SDS011;43284;47.042;15.498;2023-08-06T10:47:39;0.57;;;0.57;;
57441;SDS011;43284;47.042;15.498;2023-08-06T10:50:06;1.13;;;0.80;;
57441;SDS011;43284;47.042;15.498;2023-08-06T10:52:33;0.60;;;0.60;;
57441;SDS011;43284;47.042;15.498;2023-08-06T10:54:59;1.45;;;0.75;;
57441;SDS011;43284;47.042;15.498;2023-08-06T10:57:25;0.68;;;0.65;;
57441;SDS011;43284;47.042;15.498;2023-08-06T10:59:50;1.17;;;0.80;;
57441;SDS011;43284;47.042;15.498;2023-08-06T11:02:16;0.70;;;0.70;;
57441;SDS011;43284;47.042;15.498;2023-08-06T11:04:41;0.65;;;0.52;;
57441;SDS011;43284;47.042;15.498;2023-08-06T11:07:07;0.90;;;0.68;;
57441;SDS011;43284;47.042;15.498;2023-08-06T11:09:33;0.57;;;0.50;;
57441;SDS011;43284;47.042;15.498;2023-08-06T11:11:58;1.55;;;0.88;;
57441;SDS011;43284;47.042;15.498;2023-08-06T11:14:24;0.52;;;0.50;;
57441;SDS011;43284;47.042;15.498;2023-08-06T11:16:50;1.58;;;0.55;;
57441;SDS011;43284;47.042;15.498;2023-08-06T11:19:15;0.80;;;0.50;;
57441;SDS011;43284;47.042;15.498;2023-08-06T11:21:42;0.68;;;0.60;;
57441;SDS011;43284;47.042;15.498;2023-08-06T11:24:12;1.17;;;0.75;;
57441;SDS011;43284;47.042;15.498;2023-08-06T11:26:37;0.75;;;0.60;;
57441;SDS011;43284;47.042;15.498;2023-08-06T11:29:05;0.40;;;0.40;;
57441;SDS011;43284;47.042;15.498;2023-08-06T11:31:30;0.60;;;0.47;;
57441;SDS011;43284;47.042;15.498;2023-08-06T11:33:56;0.95;;;0.75;;
57441;SDS011;43284;47.042;15.498;2023-08-06T11:36:32;1.25;;;0.60;;
57441;SDS011;43284;47.042;15.498;2023-08-06T11:38:59;1.02;;;0.57;;
57441;SDS011;43284;47.042;15.498;2023-08-06T11:41:27;0.75;;;0.70;;
57441;SDS011;43284;47.042;15.498;2023-08-06T11:43:53;1.08;;;0.75;;
57441;SDS011;43284;47.042;15.498;2023-08-06T11:46:19;0.70;;;0.70;;
57441;SDS011;43284;47.042;15.498;2023-08-06T11:48:54;2.10;;;0.70;;
57441;SDS011;43284;47.042;15.498;2023-08-06T11:51:27;1.65;;;0.60;;
57441;SDS011;43284;47.042;15.498;2023-08-06T11:53:56;0.55;;;0.43;;
57441;SDS011;43284;47.042;15.498;2023-08-06T11:56:23;1.05;;;0.60;;
57441;SDS011;43284;47.042;15.498;2023-08-06T11:58:50;0.95;;;0.50;;
57441;SDS011;43284;47.042;15.498;2023-08-06T12:01:16;1.38;;;0.75;;
57441;SDS011;43284;47.042;15.498;2023-08-06T12:03:41;0.52;;;0.43;;
57441;SDS011;43284;47.042;15.498;2023-08-06T12:06:07;0.65;;;0.47;;
57441;SDS011;43284;47.042;15.498;2023-08-06T12:08:32;1.00;;;0.70;;
57441;SDS011;43284;47.042;15.498;2023-08-06T12:10:58;1.25;;;0.60;;
57441;SDS011;43284;47.042;15.498;2023-08-06T12:13:24;1.08;;;0.57;;
57441;SDS011;43284;47.042;15.498;2023-08-06T12:15:50;0.70;;;0.70;;
57441;SDS011;43284;47.042;15.498;2023-08-06T12:18:18;1.55;;;0.65;;
57441;SDS011;43284;47.042;15.498;2023-08-06T12:20:43;0.73;;;0.50;;
57441;SDS011;43284;47.042;15.498;2023-08-06T12:23:09;1.13;;;0.60;;
57441;SDS011;43284;47.042;15.498;2023-08-06T12:25:35;0.70;;;0.60;;
57441;SDS011;43284;47.042;15.498;2023-08-06T12:28:00;0.65;;;0.47;;
57441;SDS011;43284;47.042;15.498;2023-08-06T12:30:26;1.00;;;0.50;;
57441;SDS011;43284;47.042;15.498;2023-08-06T12:32:51;1.20;;;0.60;;
57441;SDS011;43284;47.042;15.498;2023-08-06T12:35:17;1.05;;;0.70;;
57441;SDS011;43284;47.042;15.498;2023-08-06T12:37:42;0.60;;;0.60;;
57441;SDS011;43284;47.042;15.498;2023-08-06T12:40:09;0.70;;;0.40;;
57441;SDS011;43284;47.042;15.498;2023-08-06T12:42:35;2.83;;;0.63;;
57441;SDS011;43284;47.042;15.498;2023-08-06T12:45:00;0.57;;;0.50;;
57441;SDS011;43284;47.042;15.498;2023-08-06T12:47:26;0.82;;;0.57;;
57441;SDS011;43284;47.042;15.498;2023-08-06T12:49:51;2.22;;;0.60;;
57441;SDS011;43284;47.042;15.498;2023-08-06T12:52:17;0.57;;;0.43;;
57441;SDS011;43284;47.042;15.498;2023-08-06T12:54:44;1.13;;;0.80;;
57441;SDS011;43284;47.042;15.498;2023-08-06T12:57:11;0.73;;;0.60;;
57441;SDS011;43284;47.042;15.498;2023-08-06T12:59:37;0.57;;;0.50;;
57441;SDS011;43284;47.042;15.498;2023-08-06T13:02:03;2.08;;;1.00;;
57441;SDS011;43284;47.042;15.498;2023-08-06T13:04:28;1.15;;;0.60;;
57441;SDS011;43284;47.042;15.498;2023-08-06T13:06:54;0.70;;;0.60;;
57441;SDS011;43284;47.042;15.498;2023-08-06T13:09:20;0.82;;;0.50;;
57441;SDS011;43284;47.042;15.498;2023-08-06T13:11:45;1.13;;;0.60;;
57441;SDS011;43284;47.042;15.498;2023-08-06T13:14:12;1.15;;;0.40;;
57441;SDS011;43284;47.042;15.498;2023-08-06T13:16:39;0.57;;;0.50;;
57441;SDS011;43284;47.042;15.498;2023-08-06T13:19:07;0.45;;;0.40;;
57441;SDS011;43284;47.042;15.498;2023-08-06T13:21:33;1.52;;;0.22;;
57441;SDS011;43284;47.042;15.498;2023-08-06T13:24:00;0.93;;;0.50;;
57441;SDS011;43284;47.042;15.498;2023-08-06T13:26:28;1.85;;;0.30;;
57441;SDS011;43284;47.042;15.498;2023-08-06T13:28:54;0.82;;;0.40;;
57441;SDS011;43284;47.042;15.498;2023-08-06T13:31:22;0.30;;;0.30;;
57441;SDS011;43284;47.042;15.498;2023-08-06T13:33:47;0.38;;;0.20;;
57441;SDS011;43284;47.042;15.498;2023-08-06T13:36:15;0.73;;;0.40;;
57441;SDS011;43284;47.042;15.498;2023-08-06T13:38:41;1.60;;;0.50;;
57441;SDS011;43284;47.042;15.498;2023-08-06T13:41:06;0.75;;;0.40;;
57441;SDS011;43284;47.042;15.498;2023-08-06T13:43:32;0.40;;;0.40;;
57441;SDS011;43284;47.042;15.498;2023-08-06T13:45:57;0.30;;;0.30;;
57441;SDS011;43284;47.042;15.498;2023-08-06T13:48:22;0.28;;;0.28;;
57441;SDS011;43284;47.042;15.498;2023-08-06T13:50:48;0.47;;;0.30;;
57441;SDS011;43284;47.042;15.498;2023-08-06T13:53:13;1.70;;;0.30;;
57441;SDS011;43284;47.042;15.498;2023-08-06T13:55:39;0.30;;;0.30;;
57441;SDS011;43284;47.042;15.498;2023-08-06T13:58:04;0.85;;;0.40;;
57441;SDS011;43284;47.042;15.498;2023-08-06T14:00:30;0.93;;;0.30;;
57441;SDS011;43284;47.042;15.498;2023-08-06T14:02:55;0.85;;;0.50;;
57441;SDS011;43284;47.042;15.498;2023-08-06T14:05:21;0.43;;;0.30;;
57441;SDS011;43284;47.042;15.498;2023-08-06T14:07:46;0.30;;;0.30;;
57441;SDS011;43284;47.042;15.498;2023-08-06T14:10:12;0.30;;;0.30;;
57441;SDS011;43284;47.042;15.498;2023-08-06T14:12:38;2.05;;;0.40;;
57441;SDS011;43284;47.042;15.498;2023-08-06T14:15:03;0.45;;;0.38;;
57441;SDS011;43284;47.042;15.498;2023-08-06T14:17:29;0.30;;;0.30;;
57441;SDS011;43284;47.042;15.498;2023-08-06T14:19:55;0.38;;;0.30;;
57441;SDS011;43284;47.042;15.498;2023-08-06T14:22:21;0.30;;;0.30;;
57441;SDS011;43284;47.042;15.498;2023-08-06T14:24:47;0.30;;;0.30;;
57441;SDS011;43284;47.042;15.498;2023-08-06T14:27:12;0.50;;;0.50;;
57441;SDS011;43284;47.042;15.498;2023-08-06T14:29:38;1.05;;;0.60;;
57441;SDS011;43284;47.042;15.498;2023-08-06T14:32:04;0.22;;;0.22;;
57441;SDS011;43284;47.042;15.498;2023-08-06T14:34:29;1.58;;;0.40;;
57441;SDS011;43284;47.042;15.498;2023-08-06T14:36:55;1.42;;;0.60;;